Welcome to Trans World Virtual Airlines!

Welcome TWVA's Newest Pilot:

TWA2318 Derek Rogers

Not a Trans World pilot yet?
Apply Now!




Sign-in with your pilot id or email, or register

Flight TWC9776

  • Submitted By: Neil Bonner
  • Departure Airport: Los Angeles International Airport (KLAX)
  • Arrival Airport: Kansas City International Airport (KMCI)
  • Aircraft: B777-200F (N22611TWC)
  • Flight Time: 02.51
  • Date Submitted: 08/23/2018
  • Route: Departure: KLAX 232253Z 25014KT 10SM FEW012 FEW200 25/18 A2995 RMK AO2 SLP139 T02500178 $ Destination: KMCI 232253Z 15011KT 10SM FEW019 BKN130 24/21 A2992 RMK AO2 SLP124 T02390206
  • Status: Accepted
Flight Details
Gross Revenue:
(203 load / $ 0.35 per unit
$ 71.05
Fuel Cost:
(32346 fuel used @ 0.8 / unit)
$ 25, 876.80

Additional Log Information:

View Log

FS[13:44] Aircraft Title - SSP B77Fx DHL Yellow FSX
FS[13:44] Aircraft Model - B772
FS[13:44] Flight Number TWC9776
FS[13:44] Departure KLAX
FS[13:44] Destination KMCI
FS[13:44] Boarding
FS[13:46] Pushing Back
FS[13:49] Taxiing to Runway
FS[13:51] Taking Off
FS[13:54] Taking Off
FS[13:54] 176kts
FS[13:54] pitch angle 6 degrees
FS[13:54] 64686 (lbs) of fuel onboard
FS[13:54] Climbing
FS[14:04] TOC Reached
FS[14:04] Cruise 37000
FS[14:57] Overspeed
FS[14:57] Overspeed Corrected
FS[15:37] Overspeed
FS[15:37] Overspeed Corrected
FS[16:06] TOD Reached
FS[16:06] Descending
FS[16:25] On Approach
FS[16:30] Landing Rate -185fpm
FS[16:30] 34825 (lbs) of fuel onboard
FS[16:30] pitch angle 0 degrees
FS[16:30] Taxiing to Gate
FS[16:34] Arrived
FS[16:36] Max Sim Rate: 1x
FS[16:36] kACARS_Free Version 1.0.1.1

Comments

Commenter Comment
Neil Bonner Wet lease acft for 2 months.

Route Map